createdAt,value
2022-10-05T00:00:53.026Z,100781.27
2022-10-05T00:03:36.522Z,100782.52
2022-10-05T00:06:04.464Z,100781.67
2022-10-05T00:08:34.693Z,100782.52
2022-10-05T00:11:06.942Z,100783.64
2022-10-05T00:13:34.021Z,100787.27
2022-10-05T00:16:17.805Z,100787.23
2022-10-05T00:18:52.624Z,100787.52
2022-10-05T00:21:24.946Z,100788.20
2022-10-05T00:23:53.465Z,100788.30
2022-10-05T00:26:23.792Z,100789.11
2022-10-05T00:28:52.003Z,100788.16
2022-10-05T00:31:22.468Z,100790.67
2022-10-05T00:33:51.114Z,100790.91
2022-10-05T00:36:18.623Z,100795.97
2022-10-05T00:38:45.574Z,100801.63
2022-10-05T00:41:29.350Z,100808.48
2022-10-05T00:44:10.827Z,100812.23
2022-10-05T00:47:05.817Z,100811.54
2022-10-05T00:50:10.175Z,100806.80
2022-10-05T00:52:43.812Z,100806.43
2022-10-05T00:55:24.831Z,100804.13
2022-10-05T00:58:27.081Z,100806.34
2022-10-05T01:01:08.581Z,100811.36
2022-10-05T01:03:58.120Z,100816.11
2022-10-05T01:06:38.813Z,100817.08
2022-10-05T01:09:19.888Z,100819.56
2022-10-05T01:12:04.577Z,100825.08
2022-10-05T01:14:45.991Z,100829.35
2022-10-05T01:17:56.119Z,100829.71
2022-10-05T01:20:43.989Z,100840.30
2022-10-05T01:23:25.768Z,100838.21
2022-10-05T01:26:28.117Z,100840.05
2022-10-05T01:29:08.490Z,100841.03
2022-10-05T01:31:53.286Z,100843.76
2022-10-05T01:34:40.337Z,100844.95
2022-10-05T01:37:34.005Z,100847.85
2022-10-05T01:40:07.509Z,100852.42
2022-10-05T01:42:53.984Z,100851.92
2022-10-05T01:45:47.135Z,100857.17
2022-10-05T01:48:28.594Z,100859.13
2022-10-05T01:51:05.049Z,100862.26
2022-10-05T01:54:17.695Z,100863.80
2022-10-05T01:56:59.809Z,100866.46
2022-10-05T01:59:48.593Z,100869.52
2022-10-05T02:02:21.665Z,100871.02
2022-10-05T02:05:03.236Z,100870.44
2022-10-05T02:07:54.414Z,100872.38
2022-10-05T02:10:27.220Z,100872.69
2022-10-05T02:13:02.856Z,100872.91
2022-10-05T02:15:51.175Z,100877.67
2022-10-05T02:18:23.745Z,100882.33
2022-10-05T02:20:54.939Z,100886.85
2022-10-05T02:23:26.558Z,100891.09
2022-10-05T02:25:55.897Z,100888.33
2022-10-05T02:28:35.458Z,100890.88
2022-10-05T02:31:13.618Z,100897.70
2022-10-05T02:33:40.422Z,100899.95
2022-10-05T02:36:35.414Z,100904.02
2022-10-05T02:39:28.366Z,100905.92
2022-10-05T02:42:01.695Z,100907.45
2022-10-05T02:44:37.415Z,100908.73
2022-10-05T02:47:10.101Z,100910.91
2022-10-05T02:50:00.164Z,100913.45
2022-10-05T02:52:34.471Z,100910.77
2022-10-05T02:55:33.463Z,100909.54
2022-10-05T02:58:07.421Z,100911.39
2022-10-05T03:00:45.246Z,100910.07
2022-10-05T03:03:27.386Z,100915.61
2022-10-05T03:06:10.180Z,100917.99
2022-10-05T03:08:44.406Z,100922.52
2022-10-05T03:11:23.328Z,100928.94
2022-10-05T03:14:24.381Z,100932.01
2022-10-05T03:17:11.178Z,100936.35
2022-10-05T03:20:00.950Z,100938.23
2022-10-05T03:22:43.486Z,100940.34
2022-10-05T03:25:22.413Z,100945.04
2022-10-05T03:27:53.730Z,100940.18
2022-10-05T03:30:25.210Z,100944.85
2022-10-05T03:32:57.927Z,100949.25
2022-10-05T03:35:39.624Z,100949.61
2022-10-05T03:38:29.569Z,100953.25
2022-10-05T03:41:16.884Z,100948.09
2022-10-05T03:43:52.251Z,100949.88
2022-10-05T03:46:46.992Z,100949.39
2022-10-05T03:49:14.365Z,100949.52
2022-10-05T03:52:21.678Z,100950.31
2022-10-05T03:55:29.766Z,100949.48
2022-10-05T03:58:02.476Z,100949.81
2022-10-05T04:00:31.767Z,100945.65
2022-10-05T04:03:10.627Z,100944.84
2022-10-05T04:05:48.298Z,100942.02
2022-10-05T04:08:17.971Z,100940.71
2022-10-05T04:11:13.851Z,100946.50
2022-10-05T04:14:04.301Z,100955.45
2022-10-05T04:16:37.130Z,100953.14
2022-10-05T04:19:14.518Z,100961.64
2022-10-05T04:21:55.695Z,100968.67
2022-10-05T04:24:39.138Z,100972.95
2022-10-05T04:27:31.342Z,100977.29
2022-10-05T04:30:07.598Z,100979.98
2022-10-05T04:32:47.998Z,100979.91
2022-10-05T04:35:40.758Z,100985.05
2022-10-05T04:38:32.059Z,100980.30
2022-10-05T04:41:18.363Z,100982.89
2022-10-05T04:44:03.592Z,100987.66
2022-10-05T04:46:55.937Z,100990.52
2022-10-05T04:49:29.291Z,100993.41
2022-10-05T04:51:56.759Z,100995.85
2022-10-05T04:54:29.329Z,100998.04
2022-10-05T04:57:01.159Z,101000.65
2022-10-05T05:00:33.748Z,101000.05
2022-10-05T05:03:23.254Z,101000.34
2022-10-05T05:06:17.971Z,101001.86
2022-10-05T05:09:26.057Z,101003.86
2022-10-05T05:12:30.257Z,101003.62
2022-10-05T05:15:18.913Z,101003.59
2022-10-05T05:18:03.993Z,101002.82
2022-10-05T05:20:37.004Z,101003.84
2022-10-05T05:23:27.056Z,101002.89
2022-10-05T05:26:11.466Z,101009.45
2022-10-05T05:28:52.158Z,101015.67
2022-10-05T05:31:48.030Z,101019.86
2022-10-05T05:34:30.654Z,101019.79
2022-10-05T05:37:07.222Z,101013.69
2022-10-05T05:39:46.127Z,101017.93
2022-10-05T05:42:21.284Z,101021.91
2022-10-05T05:44:52.913Z,101019.81
2022-10-05T05:47:34.929Z,101022.70
2022-10-05T05:50:21.434Z,101018.35
2022-10-05T05:52:58.222Z,101014.80
2022-10-05T05:56:00.110Z,101016.27
2022-10-05T05:59:00.709Z,101023.15
2022-10-05T06:01:44.269Z,101023.06
2022-10-05T06:04:22.061Z,101023.30
2022-10-05T06:06:52.142Z,101029.27
2022-10-05T06:09:28.078Z,101028.40
2022-10-05T06:12:16.130Z,101031.13
2022-10-05T06:14:50.553Z,101038.77
2022-10-05T06:17:28.439Z,101043.11
2022-10-05T06:20:03.938Z,101047.86
2022-10-05T06:22:39.199Z,101056.85
2022-10-05T06:25:26.164Z,101061.65
2022-10-05T06:28:11.439Z,101065.96
2022-10-05T06:30:45.262Z,101065.44
2022-10-05T06:33:43.770Z,101070.02
2022-10-05T06:36:19.600Z,101073.92
2022-10-05T06:39:17.062Z,101078.75
2022-10-05T06:42:10.511Z,101082.75
2022-10-05T06:45:18.070Z,101088.60
2022-10-05T06:47:57.400Z,101080.95
2022-10-05T06:50:54.476Z,101089.89
2022-10-05T06:53:46.092Z,101088.63
2022-10-05T06:56:17.189Z,101087.09
2022-10-05T06:58:57.014Z,101090.30
2022-10-05T07:01:32.673Z,101095.38
2022-10-05T07:04:36.762Z,101096.71
2022-10-05T07:07:32.123Z,101096.88
2022-10-05T07:10:28.787Z,101099.90
2022-10-05T07:13:06.159Z,101109.46
2022-10-05T07:15:40.040Z,101108.26
2022-10-05T07:18:32.980Z,101104.52
2022-10-05T07:21:06.111Z,101105.48
2022-10-05T07:23:48.102Z,101106.20
2022-10-05T07:26:20.624Z,101103.30
2022-10-05T07:28:56.189Z,101102.67
2022-10-05T07:31:28.991Z,101104.14
2022-10-05T07:34:14.724Z,101103.15
2022-10-05T07:37:10.325Z,101106.32
2022-10-05T07:40:31.707Z,101108.27
2022-10-05T07:43:14.134Z,101111.64
2022-10-05T07:45:57.793Z,101112.33
2022-10-05T07:48:51.650Z,101112.64
2022-10-05T07:51:29.826Z,101115.48
2022-10-05T07:54:02.577Z,101118.66
2022-10-05T07:56:36.308Z,101118.60
2022-10-05T07:59:10.954Z,101118.48
2022-10-05T08:01:43.864Z,101119.95
2022-10-05T08:04:16.460Z,101117.24
2022-10-05T08:06:49.918Z,101113.35
2022-10-05T08:09:29.534Z,101108.14
2022-10-05T08:12:24.114Z,101109.05
2022-10-05T08:14:58.486Z,101105.45
2022-10-05T08:17:25.687Z,101101.14
2022-10-05T08:20:04.190Z,101099.01
2022-10-05T08:22:39.090Z,101096.98
2022-10-05T08:25:14.078Z,101094.41
2022-10-05T08:28:04.180Z,101094.96
2022-10-05T08:30:47.981Z,101099.81
2022-10-05T08:33:18.637Z,101103.43
2022-10-05T08:35:55.161Z,101108.01
2022-10-05T08:38:32.322Z,101105.20
2022-10-05T08:41:30.588Z,101098.77
2022-10-05T08:43:57.222Z,101092.33
2022-10-05T08:46:42.273Z,101085.06
2022-10-05T08:49:35.289Z,101076.39
2022-10-05T08:52:20.831Z,101082.48
2022-10-05T08:55:09.365Z,101084.86
2022-10-05T08:57:51.249Z,101096.64
2022-10-05T09:00:31.207Z,101093.48
2022-10-05T09:03:15.461Z,101093.23
2022-10-05T09:05:57.938Z,101093.38
2022-10-05T09:08:36.991Z,101092.75
2022-10-05T09:11:25.816Z,101095.64
2022-10-05T09:14:03.929Z,101102.88
2022-10-05T09:16:49.290Z,101112.61
2022-10-05T09:19:27.915Z,101120.23
2022-10-05T09:22:15.190Z,101124.35
2022-10-05T09:24:55.897Z,101116.48
2022-10-05T09:27:37.242Z,101117.73
2022-10-05T09:30:21.267Z,101117.65
2022-10-05T09:33:00.101Z,101119.94
2022-10-05T09:35:44.968Z,101110.45
2022-10-05T09:38:42.899Z,101113.73
2022-10-05T09:41:15.327Z,101101.17
2022-10-05T09:43:53.844Z,101103.33
2022-10-05T09:46:59.023Z,101106.77
2022-10-05T09:49:50.087Z,101095.97
2022-10-05T09:52:28.663Z,101091.42
2022-10-05T09:55:16.840Z,101078.70
2022-10-05T09:58:05.006Z,101079.23
2022-10-05T10:01:33.115Z,101070.23
2022-10-05T10:05:05.530Z,101080.02
2022-10-05T10:07:50.256Z,101083.56
2022-10-05T10:10:35.444Z,101090.31
2022-10-05T10:13:20.522Z,101094.84
2022-10-05T10:16:26.374Z,101092.25
2022-10-05T10:19:12.262Z,101089.94
2022-10-05T10:22:08.343Z,101086.19
2022-10-05T10:25:03.054Z,101092.91
2022-10-05T10:27:53.829Z,101090.54
2022-10-05T10:30:20.686Z,101089.25
2022-10-05T10:33:11.421Z,101089.77
2022-10-05T10:35:48.940Z,101087.05
2022-10-05T10:38:47.759Z,101083.31
2022-10-05T10:41:42.058Z,101078.27
2022-10-05T10:44:27.045Z,101071.11
2022-10-05T10:47:24.106Z,101070.23
2022-10-05T10:50:15.057Z,101068.16
2022-10-05T10:52:47.869Z,101072.67
2022-10-05T10:55:17.525Z,101070.41
2022-10-05T10:58:13.644Z,101068.48
2022-10-05T11:00:45.490Z,101077.04
2022-10-05T11:03:44.238Z,101077.77
2022-10-05T11:06:17.418Z,101073.42
2022-10-05T11:09:18.135Z,101072.21
2022-10-05T11:12:29.879Z,101063.07
2022-10-05T11:15:21.992Z,101055.71
2022-10-05T11:18:06.620Z,101052.67
2022-10-05T11:21:22.740Z,101034.79
2022-10-05T11:23:58.429Z,101024.52
2022-10-05T11:26:47.088Z,101021.87
2022-10-05T11:29:51.652Z,101022.45
2022-10-05T11:32:57.587Z,101015.73
2022-10-05T11:36:09.525Z,101010.23
2022-10-05T11:38:48.211Z,101016.06
2022-10-05T11:41:37.719Z,101010.09
2022-10-05T11:44:07.406Z,101012.06
2022-10-05T11:46:51.789Z,101015.80
2022-10-05T11:50:04.960Z,101015.35
2022-10-05T11:52:40.762Z,101019.38
2022-10-05T11:55:19.492Z,101025.77
2022-10-05T11:57:58.544Z,101026.70
2022-10-05T12:00:34.014Z,101028.27
2022-10-05T12:03:38.723Z,101022.77
2022-10-05T12:06:20.818Z,101025.52
2022-10-05T12:09:12.922Z,101026.00
2022-10-05T12:11:42.670Z,101029.94
2022-10-05T12:14:46.400Z,101030.36
2022-10-05T12:17:23.234Z,101023.61
2022-10-05T12:19:57.312Z,101026.18
2022-10-05T12:22:49.753Z,101031.75
2022-10-05T12:25:29.470Z,101031.09
2022-10-05T12:28:04.553Z,101025.55
2022-10-05T12:31:03.258Z,101028.73
2022-10-05T12:33:39.079Z,101033.36
2022-10-05T12:36:16.715Z,101031.45
2022-10-05T12:38:54.254Z,101025.95
2022-10-05T12:41:40.555Z,101021.90
2022-10-05T12:44:21.110Z,101018.81
2022-10-05T12:47:09.056Z,101019.92
2022-10-05T12:50:03.615Z,101012.08
2022-10-05T12:53:03.694Z,101009.04
2022-10-05T12:55:46.151Z,101011.31
2022-10-05T12:58:28.247Z,101011.32
2022-10-05T13:01:13.839Z,101010.27
2022-10-05T13:03:52.531Z,101017.62
2022-10-05T13:06:27.124Z,101025.31
2022-10-05T13:09:10.051Z,101023.54
2022-10-05T13:11:51.176Z,101023.30
2022-10-05T13:14:45.496Z,101022.50
2022-10-05T13:17:40.641Z,101024.23
2022-10-05T13:20:22.995Z,101029.38
2022-10-05T13:23:04.352Z,101028.41
2022-10-05T13:25:36.540Z,101022.26
2022-10-05T13:28:43.846Z,101016.41
2022-10-05T13:31:21.038Z,101016.09
2022-10-05T13:34:20.718Z,101014.94
2022-10-05T13:37:05.443Z,101020.42
2022-10-05T13:40:04.188Z,101014.95
2022-10-05T13:42:40.927Z,101015.84
2022-10-05T13:45:42.965Z,101017.94
2022-10-05T13:48:12.257Z,101013.71
2022-10-05T13:51:12.267Z,101017.16
2022-10-05T13:53:55.462Z,101010.84
2022-10-05T13:56:30.485Z,101014.64
2022-10-05T13:59:19.603Z,101007.27
2022-10-05T14:01:46.248Z,101013.70
2022-10-05T14:04:26.697Z,101012.70
2022-10-05T14:06:53.620Z,101009.69
2022-10-05T14:09:21.461Z,101011.61
2022-10-05T14:12:18.260Z,101011.03
2022-10-05T14:14:50.969Z,101010.14
2022-10-05T14:17:42.041Z,101015.27
2022-10-05T14:20:30.436Z,101014.59
2022-10-05T14:23:01.673Z,101013.66
2022-10-05T14:25:30.033Z,101015.06
2022-10-05T14:28:12.054Z,101012.66
2022-10-05T14:30:39.952Z,101010.80
2022-10-05T14:33:15.818Z,101009.94
2022-10-05T14:35:44.630Z,101007.23
2022-10-05T14:38:25.984Z,101010.04
2022-10-05T14:41:26.814Z,101008.22
2022-10-05T14:44:08.899Z,101009.70
2022-10-05T14:46:36.592Z,101015.37
2022-10-05T14:49:21.825Z,101014.76
2022-10-05T14:51:50.893Z,101017.06
2022-10-05T14:54:44.804Z,101014.45
2022-10-05T14:57:38.676Z,101022.28
2022-10-05T15:00:16.665Z,101020.60
2022-10-05T15:03:24.032Z,101016.69
2022-10-05T15:05:58.329Z,101013.05
2022-10-05T15:08:35.509Z,101017.77
2022-10-05T15:11:13.613Z,101018.17
2022-10-05T15:13:48.133Z,101019.98
2022-10-05T15:16:24.491Z,101023.23
2022-10-05T15:19:20.335Z,101028.39
2022-10-05T15:22:24.731Z,101035.17
2022-10-05T15:25:14.730Z,101037.05
2022-10-05T15:28:20.897Z,101044.66
2022-10-05T15:31:00.765Z,101045.36
2022-10-05T15:33:28.106Z,101048.32
2022-10-05T15:36:23.527Z,101052.17
2022-10-05T15:39:17.997Z,101059.96
2022-10-05T15:41:59.913Z,101059.96
2022-10-05T15:45:02.082Z,101061.77
2022-10-05T15:47:55.724Z,101061.88
2022-10-05T15:50:26.804Z,101058.52
2022-10-05T15:53:24.275Z,101054.08
2022-10-05T15:56:05.773Z,101054.61
2022-10-05T15:58:52.634Z,101049.96
2022-10-05T16:01:46.573Z,101051.67
2022-10-05T16:04:16.295Z,101052.25
2022-10-05T16:07:11.838Z,101053.50
2022-10-05T16:09:55.802Z,101053.60
2022-10-05T16:12:37.664Z,101049.22
2022-10-05T16:15:33.721Z,101050.78
2022-10-05T16:18:38.258Z,101051.84
2022-10-05T16:21:24.101Z,101052.98
2022-10-05T16:24:04.506Z,101054.30
2022-10-05T16:26:40.835Z,101056.00
2022-10-05T16:29:23.371Z,101057.64
2022-10-05T16:32:05.277Z,101057.86
2022-10-05T16:35:10.220Z,101062.48
2022-10-05T16:37:46.609Z,101065.76
2022-10-05T16:40:57.332Z,101069.16
2022-10-05T16:44:00.463Z,101069.31
2022-10-05T16:46:49.513Z,101062.20
2022-10-05T16:49:52.026Z,101059.44
2022-10-05T16:52:22.929Z,101054.77
2022-10-05T16:54:56.875Z,101051.38
2022-10-05T16:57:23.446Z,101048.36
2022-10-05T17:00:15.525Z,101051.75
2022-10-05T17:03:13.336Z,101054.65
2022-10-05T17:06:01.240Z,101053.89
2022-10-05T17:08:36.073Z,101058.67
2022-10-05T17:11:05.554Z,101059.29
2022-10-05T17:13:43.978Z,101055.04
2022-10-05T17:16:25.123Z,101055.39
2022-10-05T17:19:05.079Z,101058.02
2022-10-05T17:22:06.740Z,101059.81
2022-10-05T17:24:57.052Z,101062.98
2022-10-05T17:27:54.178Z,101059.53
2022-10-05T17:30:27.920Z,101066.73
2022-10-05T17:32:59.615Z,101069.98
2022-10-05T17:36:07.911Z,101073.88
2022-10-05T17:38:34.576Z,101073.13
2022-10-05T17:41:19.636Z,101077.98
2022-10-05T17:44:15.702Z,101081.89
2022-10-05T17:46:47.295Z,101085.70
2022-10-05T17:49:19.289Z,101089.89
2022-10-05T17:52:04.707Z,101088.91
2022-10-05T17:55:13.823Z,101093.08
2022-10-05T17:57:41.423Z,101092.81
2022-10-05T18:00:31.045Z,101096.85
2022-10-05T18:02:57.912Z,101092.77
2022-10-05T18:05:27.824Z,101091.52
2022-10-05T18:08:12.983Z,101089.72
2022-10-05T18:11:36.095Z,101089.58
2022-10-05T18:14:20.451Z,101092.33
2022-10-05T18:17:12.060Z,101091.02
2022-10-05T18:19:38.929Z,101090.81
2022-10-05T18:22:15.028Z,101087.77
2022-10-05T18:25:05.502Z,101089.58
2022-10-05T18:28:07.563Z,101088.07
2022-10-05T18:31:16.195Z,101092.15
2022-10-05T18:34:23.154Z,101087.48
2022-10-05T18:37:10.245Z,101083.41
2022-10-05T18:39:42.895Z,101082.61
2022-10-05T18:42:41.045Z,101079.67
2022-10-05T18:45:26.889Z,101082.54
2022-10-05T18:48:13.334Z,101082.61
2022-10-05T18:50:46.925Z,101084.27
2022-10-05T18:53:29.370Z,101084.73
2022-10-05T18:56:03.946Z,101080.44
2022-10-05T18:58:48.142Z,101078.57
2022-10-05T19:01:24.055Z,101077.92
2022-10-05T19:04:21.932Z,101077.98
2022-10-05T19:06:51.239Z,101082.38
2022-10-05T19:09:50.359Z,101085.23
2022-10-05T19:12:44.392Z,101086.52
2022-10-05T19:15:37.548Z,101084.70
2022-10-05T19:18:18.988Z,101084.14
2022-10-05T19:20:54.126Z,101082.74
2022-10-05T19:23:23.701Z,101088.53
2022-10-05T19:26:11.309Z,101092.38
2022-10-05T19:29:08.838Z,101094.03
2022-10-05T19:31:48.826Z,101088.61
2022-10-05T19:34:59.982Z,101088.34
2022-10-05T19:38:02.581Z,101086.11
2022-10-05T19:40:51.690Z,101090.80
2022-10-05T19:43:30.865Z,101095.05
2022-10-05T19:46:20.265Z,101100.56
2022-10-05T19:48:52.049Z,101099.85
2022-10-05T19:51:29.862Z,101098.10
2022-10-05T19:54:01.409Z,101095.11
2022-10-05T19:56:33.080Z,101089.09
2022-10-05T19:59:12.626Z,101101.48
2022-10-05T20:01:45.375Z,101098.95
2022-10-05T20:04:12.144Z,101098.98
2022-10-05T20:06:39.075Z,101098.58
2022-10-05T20:09:20.245Z,101098.81
2022-10-05T20:11:52.126Z,101094.48
2022-10-05T20:14:32.906Z,101089.09
2022-10-05T20:17:46.461Z,101091.45
2022-10-05T20:20:36.376Z,101096.30
2022-10-05T20:23:20.712Z,101102.52
2022-10-05T20:26:08.163Z,101103.41
2022-10-05T20:28:35.188Z,101098.20
2022-10-05T20:31:02.081Z,101099.58
2022-10-05T20:33:29.531Z,101100.73
2022-10-05T20:35:56.228Z,101097.61
2022-10-05T20:38:22.936Z,101099.00
2022-10-05T20:40:49.661Z,101102.09
2022-10-05T20:43:16.367Z,101108.02
2022-10-05T20:45:43.102Z,101107.06
2022-10-05T20:48:10.999Z,101107.67
2022-10-05T20:50:38.270Z,101108.86
2022-10-05T20:53:10.985Z,101104.11
2022-10-05T20:55:38.615Z,101094.02
2022-10-05T20:58:08.313Z,101083.21
2022-10-05T21:00:53.733Z,101078.48
2022-10-05T21:03:20.547Z,101077.99
2022-10-05T21:05:47.216Z,101079.50
2022-10-05T21:08:14.646Z,101079.09
2022-10-05T21:10:41.372Z,101078.77
2022-10-05T21:13:08.619Z,101080.04
2022-10-05T21:15:35.329Z,101077.16
2022-10-05T21:18:01.991Z,101074.60
2022-10-05T21:20:28.668Z,101070.88
2022-10-05T21:22:55.370Z,101076.23
2022-10-05T21:25:22.040Z,101075.61
2022-10-05T21:27:49.562Z,101074.80
2022-10-05T21:30:16.411Z,101073.34
2022-10-05T21:32:44.680Z,101077.63
2022-10-05T21:35:11.783Z,101075.92
2022-10-05T21:37:38.466Z,101073.26
2022-10-05T21:40:05.498Z,101067.13
2022-10-05T21:42:32.464Z,101062.73
2022-10-05T21:44:59.144Z,101056.73
2022-10-05T21:47:25.948Z,101051.09
2022-10-05T21:49:52.866Z,101046.54
2022-10-05T21:52:20.509Z,101045.71
2022-10-05T21:54:47.318Z,101044.23
2022-10-05T21:57:14.910Z,101042.04
2022-10-05T21:59:43.307Z,101041.03
2022-10-05T22:02:10.102Z,101036.10
2022-10-05T22:04:36.772Z,101037.55
2022-10-05T22:07:13.129Z,101034.48
2022-10-05T22:09:39.839Z,101036.16
2022-10-05T22:12:06.530Z,101040.58
2022-10-05T22:14:33.169Z,101039.60
2022-10-05T22:17:00.421Z,101040.19
2022-10-05T22:19:27.223Z,101041.17
2022-10-05T22:21:54.004Z,101044.85
2022-10-05T22:24:20.694Z,101047.55
2022-10-05T22:26:51.038Z,101049.27
2022-10-05T22:29:18.904Z,101054.34
2022-10-05T22:31:48.165Z,101061.16
2022-10-05T22:34:16.152Z,101068.38
2022-10-05T22:36:43.193Z,101068.10
2022-10-05T22:39:09.988Z,101065.77
2022-10-05T22:41:36.816Z,101070.63
2022-10-05T22:44:03.876Z,101072.48
2022-10-05T22:46:31.118Z,101071.15
2022-10-05T22:48:57.958Z,101067.45
2022-10-05T22:51:24.718Z,101073.96
2022-10-05T22:53:51.458Z,101078.20
2022-10-05T22:56:18.558Z,101078.58
2022-10-05T22:58:45.782Z,101070.44
2022-10-05T23:01:15.248Z,101068.58
2022-10-05T23:03:42.351Z,101060.90
2022-10-05T23:06:20.413Z,101055.02
2022-10-05T23:08:47.342Z,101046.93
2022-10-05T23:11:15.261Z,101045.41
2022-10-05T23:13:42.897Z,101042.77
2022-10-05T23:16:13.518Z,101042.91
2022-10-05T23:18:41.108Z,101055.56
2022-10-05T23:21:09.501Z,101052.48
2022-10-05T23:23:37.979Z,101044.52
2022-10-05T23:26:06.772Z,101039.26
2022-10-05T23:28:34.319Z,101038.60
2022-10-05T23:31:06.142Z,101034.13
2022-10-05T23:33:34.279Z,101030.00
2022-10-05T23:36:11.535Z,101032.29
2022-10-05T23:38:38.906Z,101029.30
2022-10-05T23:41:07.026Z,101027.29
2022-10-05T23:43:34.436Z,101022.06
2022-10-05T23:46:01.871Z,101017.69
2022-10-05T23:48:29.527Z,101014.77
2022-10-05T23:50:57.299Z,101010.52
2022-10-05T23:53:24.481Z,101011.97
2022-10-05T23:55:52.849Z,101013.08
2022-10-05T23:58:20.359Z,101019.83
